Weather History for Escanaba, MI

Change the Weather History Date:

Saturday, November 16, 2013

  Actual Average Record
Temperature  
Mean Temperature 44 °F -  
Max Temperature 50 °F 41 °F 69 °F (1953)
Min Temperature 37 °F 29 °F 3 °F (1959)
Degree Days  
Heating Degree Days 22    
Moisture  
Dew Point 41 °F    
Average Humidity 86    
Maximum Humidity 94    
Minimum Humidity 76    
Precipitation  
Precipitation 0.26 in - - ()
Sea Level Pressure  
Sea Level Pressure 29.68 in    
Wind  
Wind Speed 10 mph (South)    
Max Wind Speed 20 mph    
Max Gust Speed 32 mph    
Visibility 6 miles    
Events Thunderstorm    
Averages and records for this station are not official NWS values.
T = Trace of Precipitation, MM = Missing Value Source: NWS Daily Summary

Daily Weather History Graph

Daily Weather History Graph

Search for Another Location

Airport:

Trip Planner

Search our weather history database for the weather conditions in past years. The results will help you decide how hot, cold, wet, or windy it might be!

Date:

Astronomy

Nov. 16, 2013 Rise Set
Actual Time 7:49 AM EST 5:16 PM EST
Civil Twilight 7:17 AM EST 5:48 PM EST
Nautical Twilight 6:41 AM EST 6:24 PM EST
Astronomical Twilight 6:06 AM EST 6:59 PM EST
Moon 4:53 PM EST (11/16) 6:42 AM EST (11/16)
Length of Visible Light 10h 31m
Length of Day
9h 26m
Waxing Gibbous, 99% of the Moon is Illuminated
Nov 16
Waxing Gibbous
Nov 17
Full
Nov 25
Last Quarter
Dec 2
New
Dec 9
First Quarter

Hourly Weather History & Observations

Time (EST) Temp. Windchill Dew Point Humidity Pressure Visibility Wind Dir Wind Speed Gust Speed Precip Events Conditions
12:15 AM 41.0 °F 38.0 °F 37.4 °F 87% 29.86 in 5.0 mi South 4.6 mph - N/A   Clear
12:35 AM 42.8 °F 41.1 °F 37.4 °F 81% 29.86 in 5.0 mi South 3.5 mph - N/A   Clear
12:55 AM 42.8 °F 40.1 °F 37.4 °F 81% 29.85 in 5.0 mi South 4.6 mph - N/A   Clear
1:15 AM 37.4 °F 34.9 °F 35.6 °F 93% 29.85 in 3.0 mi SSW 3.5 mph - N/A   Clear
1:35 AM 37.4 °F 32.8 °F 35.6 °F 93% 29.85 in 3.0 mi South 5.8 mph - N/A   Clear
1:55 AM 39.2 °F 37.0 °F 35.6 °F 87% 29.85 in 5.0 mi SSW 3.5 mph - N/A   Clear
2:15 AM 37.4 °F 33.8 °F 35.6 °F 93% 29.84 in 3.0 mi South 4.6 mph - N/A   Clear
2:35 AM 39.2 °F 34.2 °F 37.4 °F 93% 29.85 in 6.0 mi South 6.9 mph - N/A   Clear
2:55 AM 42.8 °F 38.6 °F 37.4 °F 81% 29.85 in 7.0 mi South 6.9 mph - N/A   Clear
3:15 AM 42.8 °F 38.6 °F 37.4 °F 81% 29.84 in 8.0 mi South 6.9 mph - N/A   Clear
3:35 AM 42.8 °F 37.5 °F 37.4 °F 81% 29.84 in 8.0 mi South 9.2 mph - N/A   Clear
3:55 AM 42.8 °F 37.0 °F 37.4 °F 81% 29.83 in 8.0 mi South 10.4 mph - N/A   Clear
4:15 AM 42.8 °F 37.0 °F 35.6 °F 76% 29.83 in 10.0 mi South 10.4 mph - N/A   Clear
4:35 AM 42.8 °F 37.0 °F 35.6 °F 76% 29.85 in 10.0 mi South 10.4 mph - N/A   Clear
4:55 AM 42.8 °F 37.0 °F 37.4 °F 81% 29.84 in 10.0 mi South 10.4 mph 18.4 mph N/A   Mostly Cloudy
5:15 AM 42.8 °F 37.0 °F 37.4 °F 81% 29.83 in 10.0 mi South 10.4 mph - N/A   Overcast
5:35 AM 42.8 °F 36.6 °F 37.4 °F 81% 29.83 in 10.0 mi South 11.5 mph - N/A   Overcast
5:55 AM 42.8 °F 37.5 °F 37.4 °F 81% 29.83 in 10.0 mi South 9.2 mph - N/A   Overcast
6:15 AM 42.8 °F 36.6 °F 35.6 °F 76% 29.81 in 10.0 mi South 11.5 mph 19.6 mph N/A   Mostly Cloudy
6:35 AM 42.8 °F 36.2 °F 37.4 °F 81% 29.81 in 10.0 mi South 12.7 mph 18.4 mph N/A   Mostly Cloudy
6:55 AM 44.6 °F 38.4 °F 37.4 °F 76% 29.80 in 10.0 mi South 12.7 mph 18.4 mph N/A   Overcast
7:15 AM 44.6 °F 38.4 °F 37.4 °F 76% 29.80 in 10.0 mi South 12.7 mph 19.6 mph N/A   Overcast
7:35 AM 44.6 °F 39.2 °F 37.4 °F 76% 29.80 in 10.0 mi South 10.4 mph - N/A   Overcast
7:55 AM 44.6 °F 37.8 °F 37.4 °F 76% 29.79 in 7.0 mi South 15.0 mph 21.9 mph N/A   Overcast
8:15 AM 44.6 °F 37.8 °F 37.4 °F 76% 29.79 in 7.0 mi South 15.0 mph 24.2 mph N/A   Partly Cloudy
8:35 AM 44.6 °F 38.4 °F 37.4 °F 76% 29.80 in 8.0 mi South 12.7 mph 20.7 mph N/A   Clear
8:55 AM 44.6 °F 36.9 °F 37.4 °F 76% 29.79 in 9.0 mi South 18.4 mph 25.3 mph N/A   Mostly Cloudy
9:15 AM 44.6 °F 36.6 °F 37.4 °F 76% 29.79 in 9.0 mi South 19.6 mph 25.3 mph N/A   Overcast
9:35 AM 44.6 °F 37.8 °F 37.4 °F 76% 29.78 in 9.0 mi South 15.0 mph 25.3 mph N/A   Overcast
9:55 AM 44.6 °F 38.1 °F 39.2 °F 81% 29.77 in 9.0 mi South 13.8 mph 19.6 mph N/A   Overcast
10:15 AM 44.6 °F 38.1 °F 39.2 °F 81% 29.77 in 8.0 mi South 13.8 mph 19.6 mph N/A   Overcast
10:35 AM 44.6 °F 38.4 °F 41.0 °F 87% 29.77 in 6.0 mi South 12.7 mph 19.6 mph N/A   Overcast
10:55 AM 44.6 °F 36.9 °F 41.0 °F 87% 29.75 in 6.0 mi South 18.4 mph 32.2 mph N/A   Overcast
11:15 AM 44.6 °F 36.9 °F 41.0 °F 87% 29.74 in 5.0 mi South 18.4 mph 25.3 mph N/A   Overcast
11:35 AM 44.6 °F 37.2 °F 41.0 °F 87% 29.75 in 6.0 mi South 17.3 mph 26.5 mph N/A   Overcast
11:55 AM 44.6 °F 38.1 °F 41.0 °F 87% 29.74 in 7.0 mi SSW 13.8 mph 24.2 mph N/A   Overcast
12:15 PM 44.6 °F 37.8 °F 39.2 °F 81% 29.72 in 4.0 mi SSW 15.0 mph 21.9 mph N/A   Overcast
12:35 PM 44.6 °F 38.8 °F 41.0 °F 87% 29.72 in 2.0 mi South 11.5 mph - N/A   Overcast
12:55 PM 44.6 °F 39.2 °F 42.8 °F 93% 29.71 in 1.5 mi South 10.4 mph - N/A   Overcast
1:15 PM 46.4 °F 40.1 °F 42.8 °F 87% 29.70 in 1.0 mi South 15.0 mph 21.9 mph N/A   Overcast
1:35 PM 46.4 °F 41.1 °F 42.8 °F 87% 29.69 in 1.2 mi South 11.5 mph 20.7 mph N/A   Overcast
1:55 PM 46.4 °F 40.7 °F 42.8 °F 87% 29.67 in 1.2 mi South 12.7 mph 20.7 mph N/A   Overcast
2:15 PM 46.4 °F 41.1 °F 42.8 °F 87% 29.67 in 1.2 mi South 11.5 mph 19.6 mph N/A   Overcast
2:35 PM 46.4 °F 40.1 °F 44.6 °F 93% 29.65 in 1.8 mi South 15.0 mph - N/A   Overcast
2:55 PM 46.4 °F 40.4 °F 44.6 °F 93% 29.64 in 3.0 mi South 13.8 mph 24.2 mph 0.01 in   Overcast
3:15 PM 46.4 °F 40.7 °F 44.6 °F 93% 29.63 in 2.5 mi South 12.7 mph 20.7 mph N/A   Overcast
3:35 PM 46.4 °F 40.4 °F 44.6 °F 93% 29.61 in 2.5 mi South 13.8 mph 19.6 mph N/A   Overcast
3:55 PM 46.4 °F 40.4 °F 44.6 °F 93% 29.61 in 1.5 mi South 13.8 mph 21.9 mph N/A   Overcast
4:15 PM 46.4 °F 40.1 °F 44.6 °F 93% 29.60 in 1.8 mi South 15.0 mph 19.6 mph N/A   Overcast
4:35 PM 46.4 °F 40.7 °F 44.6 °F 93% 29.60 in 1.5 mi South 12.7 mph 16.1 mph 0.02 in   Overcast
4:55 PM 46.4 °F 41.1 °F 44.6 °F 93% 29.58 in 2.5 mi South 11.5 mph 20.7 mph 0.03 in   Overcast
5:15 PM 46.4 °F 40.4 °F 44.6 °F 93% 29.57 in 2.0 mi South 13.8 mph 19.6 mph 0.02 in Thunderstorm Overcast
5:35 PM 48.2 °F - 44.6 °F 87% 29.55 in 2.5 mi South 12.7 mph 24.2 mph 0.03 in   Overcast
5:55 PM 48.2 °F - 44.6 °F 87% 29.54 in 6.0 mi South 12.7 mph 23.0 mph 0.05 in   Overcast
6:15 PM 48.2 °F - 44.6 °F 87% 29.54 in 5.0 mi South 15.0 mph 19.6 mph 0.03 in   Overcast
6:35 PM 48.2 °F - 46.4 °F 93% 29.53 in 6.0 mi South 15.0 mph 23.0 mph 0.05 in   Overcast
6:55 PM 48.2 °F - 46.4 °F 93% 29.51 in 5.0 mi South 13.8 mph 24.2 mph 0.05 in   Overcast
7:15 PM 48.2 °F - 46.4 °F 93% 29.49 in 5.0 mi South 17.3 mph 28.8 mph 0.02 in   Overcast
7:35 PM 48.2 °F - 46.4 °F 93% 29.47 in 4.0 mi South 19.6 mph 27.6 mph 0.04 in   Overcast
7:55 PM 48.2 °F - 46.4 °F 93% 29.46 in 3.0 mi South 15.0 mph 26.5 mph 0.04 in   Overcast
8:15 PM 48.2 °F - 46.4 °F 93% 29.45 in 4.0 mi South 16.1 mph 25.3 mph 0.02 in   Overcast
8:35 PM 50.0 °F - 46.4 °F 87% 29.46 in 3.0 mi SSW 15.0 mph 20.7 mph 0.05 in   Overcast
8:55 PM 48.2 °F - 46.4 °F 93% 29.46 in 3.0 mi SSW 12.7 mph 18.4 mph 0.08 in   Overcast
9:15 PM 50.0 °F - 46.4 °F 87% 29.44 in 4.0 mi SSW 13.8 mph 23.0 mph N/A   Overcast
9:35 PM 50.0 °F - 46.4 °F 87% 29.42 in 5.0 mi SSW 15.0 mph 26.5 mph N/A   Overcast
9:55 PM 50.0 °F - 46.4 °F 87% 29.41 in 5.0 mi SSW 17.3 mph 20.7 mph N/A   Overcast
10:15 PM 50.0 °F - 46.4 °F 87% 29.41 in 6.0 mi SSW 15.0 mph 32.2 mph N/A   Overcast
10:35 PM 50.0 °F - 46.4 °F 87% 29.40 in 7.0 mi SSW 17.3 mph 25.3 mph N/A   Overcast
10:55 PM 48.2 °F - 46.4 °F 93% 29.41 in 5.0 mi SSW 16.1 mph 24.2 mph N/A   Overcast
11:15 PM 48.2 °F - 46.4 °F 93% 29.40 in 8.0 mi SSW 13.8 mph 23.0 mph N/A   Overcast
11:35 PM 48.2 °F - 46.4 °F 93% 29.40 in 8.0 mi South 15.0 mph 21.9 mph N/A   Overcast
11:55 PM 50.0 °F - 48.2 °F 94% 29.41 in 8.0 mi South 10.4 mph 23.0 mph N/A   Overcast